sensor_id;sensor_type;location;lat;lon;timestamp;temperature;humidity
54946;DHT22;40846;44.788;20.486;2023-04-24T00:03:46;435.60;2304.00
54946;DHT22;40846;44.788;20.486;2023-04-24T00:06:11;435.20;2355.20
54946;DHT22;40846;44.788;20.486;2023-04-24T00:08:38;435.20;2355.20
54946;DHT22;40846;44.788;20.486;2023-04-24T00:11:08;410.50;2355.20
54946;DHT22;40846;44.788;20.486;2023-04-24T00:14:17;435.20;2355.20
54946;DHT22;40846;44.788;20.486;2023-04-24T00:19:59;435.20;2355.20
54946;DHT22;40846;44.788;20.486;2023-04-24T00:22:27;410.50;2355.20
54946;DHT22;40846;44.788;20.486;2023-04-24T01:09:25;410.50;2355.20
54946;DHT22;40846;44.788;20.486;2023-04-24T01:12:01;410.30;2355.20
54946;DHT22;40846;44.788;20.486;2023-04-24T01:14:46;410.10;2355.20
54946;DHT22;40846;44.788;20.486;2023-04-24T01:17:14;410.00;2355.20
54946;DHT22;40846;44.788;20.486;2023-04-24T01:19:40;409.90;2355.20
54946;DHT22;40846;44.788;20.486;2023-04-24T02:21:20;359.10;2329.60
54946;DHT22;40846;44.788;20.486;2023-04-24T02:26:34;358.50;2329.60
54946;DHT22;40846;44.788;20.486;2023-04-24T02:32:05;333.60;2329.60
54946;DHT22;40846;44.788;20.486;2023-04-24T02:34:30;333.50;2329.60
54946;DHT22;40846;44.788;20.486;2023-04-24T02:36:56;333.50;2329.60
54946;DHT22;40846;44.788;20.486;2023-04-24T02:39:22;333.60;2329.60
54946;DHT22;40846;44.788;20.486;2023-04-24T02:41:48;333.60;2329.60
54946;DHT22;40846;44.788;20.486;2023-04-24T02:44:14;333.60;2329.60
54946;DHT22;40846;44.788;20.486;2023-04-24T02:46:39;333.60;2329.60
54946;DHT22;40846;44.788;20.486;2023-04-24T02:49:08;333.60;2329.60
54946;DHT22;40846;44.788;20.486;2023-04-24T02:51:34;333.60;2329.60
54946;DHT22;40846;44.788;20.486;2023-04-24T02:54:00;333.60;2329.60
54946;DHT22;40846;44.788;20.486;2023-04-24T02:56:26;333.60;2329.60
54946;DHT22;40846;44.788;20.486;2023-04-24T02:58:57;333.60;2329.60
54946;DHT22;40846;44.788;20.486;2023-04-24T04:07:06;358.50;2329.60
54946;DHT22;40846;44.788;20.486;2023-04-24T04:09:32;333.70;2329.60
54946;DHT22;40846;44.788;20.486;2023-04-24T04:12:01;333.70;2329.60
54946;DHT22;40846;44.788;20.486;2023-04-24T04:14:27;333.70;2329.60
54946;DHT22;40846;44.788;20.486;2023-04-24T04:16:54;333.70;2329.60
54946;DHT22;40846;44.788;20.486;2023-04-24T04:19:20;333.60;2329.60
54946;DHT22;40846;44.788;20.486;2023-04-24T04:24:16;333.70;2329.60
54946;DHT22;40846;44.788;20.486;2023-04-24T04:26:49;333.60;2329.60
54946;DHT22;40846;44.788;20.486;2023-04-24T04:29:26;333.70;2329.60
54946;DHT22;40846;44.788;20.486;2023-04-24T04:32:11;333.70;2329.60
54946;DHT22;40846;44.788;20.486;2023-04-24T04:34:40;333.60;2329.60
54946;DHT22;40846;44.788;20.486;2023-04-24T04:37:06;333.60;2329.60
54946;DHT22;40846;44.788;20.486;2023-04-24T04:39:31;333.60;2329.60
54946;DHT22;40846;44.788;20.486;2023-04-24T04:41:57;333.60;2329.60
54946;DHT22;40846;44.788;20.486;2023-04-24T04:49:18;358.50;2329.60
54946;DHT22;40846;44.788;20.486;2023-04-24T04:51:47;333.70;2329.60
54946;DHT22;40846;44.788;20.486;2023-04-24T04:54:12;333.60;2329.60
54946;DHT22;40846;44.788;20.486;2023-04-24T04:56:38;358.40;2329.60
54946;DHT22;40846;44.788;20.486;2023-04-24T04:59:04;358.50;2329.60
54946;DHT22;40846;44.788;20.486;2023-04-24T05:01:29;358.50;2329.60
54946;DHT22;40846;44.788;20.486;2023-04-24T05:21:49;359.30;2329.60
54946;DHT22;40846;44.788;20.486;2023-04-24T05:24:36;359.10;2329.60
54946;DHT22;40846;44.788;20.486;2023-04-24T05:29:54;384.00;2329.60
54946;DHT22;40846;44.788;20.486;2023-04-24T05:39:41;359.20;2329.60
54946;DHT22;40846;44.788;20.486;2023-04-24T05:42:10;359.10;2329.60
54946;DHT22;40846;44.788;20.486;2023-04-24T05:50:09;358.60;2329.60
54946;DHT22;40846;44.788;20.486;2023-04-24T05:55:03;333.50;2329.60
54946;DHT22;40846;44.788;20.486;2023-04-24T06:31:54;333.70;2329.60
54946;DHT22;40846;44.788;20.486;2023-04-24T06:34:20;333.60;2329.60
54946;DHT22;40846;44.788;20.486;2023-04-24T06:36:54;333.70;2329.60
54946;DHT22;40846;44.788;20.486;2023-04-24T06:41:55;358.70;2329.60
54946;DHT22;40846;44.788;20.486;2023-04-24T06:44:21;358.50;2329.60
54946;DHT22;40846;44.788;20.486;2023-04-24T06:46:47;358.50;2329.60
54946;DHT22;40846;44.788;20.486;2023-04-24T06:49:18;358.50;2329.60
54946;DHT22;40846;44.788;20.486;2023-04-24T06:51:45;359.10;2329.60
54946;DHT22;40846;44.788;20.486;2023-04-24T06:54:15;359.10;2329.60
54946;DHT22;40846;44.788;20.486;2023-04-24T06:56:50;358.80;2329.60
54946;DHT22;40846;44.788;20.486;2023-04-24T06:59:17;358.80;2329.60
54946;DHT22;40846;44.788;20.486;2023-04-24T07:01:43;358.80;2329.60
54946;DHT22;40846;44.788;20.486;2023-04-24T07:04:16;359.00;2329.60
54946;DHT22;40846;44.788;20.486;2023-04-24T07:06:48;384.20;2329.60
54946;DHT22;40846;44.788;20.486;2023-04-24T07:09:19;384.00;2329.60
54946;DHT22;40846;44.788;20.486;2023-04-24T07:11:50;384.10;2329.60
54946;DHT22;40846;44.788;20.486;2023-04-24T07:14:17;384.30;2329.60
54946;DHT22;40846;44.788;20.486;2023-04-24T07:26:29;410.10;2355.20
54946;DHT22;40846;44.788;20.486;2023-04-24T07:31:33;410.30;2355.20
54946;DHT22;40846;44.788;20.486;2023-04-24T07:34:05;410.20;2355.20
54946;DHT22;40846;44.788;20.486;2023-04-24T07:36:37;410.00;2355.20
54946;DHT22;40846;44.788;20.486;2023-04-24T07:39:06;410.40;2355.20
54946;DHT22;40846;44.788;20.486;2023-04-24T08:01:16;435.70;2355.20
54946;DHT22;40846;44.788;20.486;2023-04-24T08:03:43;435.60;2355.20
54946;DHT22;40846;44.788;20.486;2023-04-24T08:58:18;461.10;2380.80
54946;DHT22;40846;44.788;20.486;2023-04-24T09:00:47;460.90;2380.80
54946;DHT22;40846;44.788;20.486;2023-04-24T09:05:44;460.90;2380.80
54946;DHT22;40846;44.788;20.486;2023-04-24T09:08:13;436.10;2355.20
54946;DHT22;40846;44.788;20.486;2023-04-24T09:10:59;436.00;2355.20
54946;DHT22;40846;44.788;20.486;2023-04-24T09:13:33;436.00;2355.20
54946;DHT22;40846;44.788;20.486;2023-04-24T09:15:59;460.90;2380.80
54946;DHT22;40846;44.788;20.486;2023-04-24T09:18:39;460.80;2380.80
54946;DHT22;40846;44.788;20.486;2023-04-24T09:21:07;460.80;2380.80
54946;DHT22;40846;44.788;20.486;2023-04-24T09:23:44;460.80;2380.80
54946;DHT22;40846;44.788;20.486;2023-04-24T09:26:10;460.80;2380.80
54946;DHT22;40846;44.788;20.486;2023-04-24T09:28:49;436.10;2355.20
54946;DHT22;40846;44.788;20.486;2023-04-24T09:31:18;436.00;2355.20
54946;DHT22;40846;44.788;20.486;2023-04-24T09:34:02;436.10;2355.20
54946;DHT22;40846;44.788;20.486;2023-04-24T09:36:44;460.80;2380.80
54946;DHT22;40846;44.788;20.486;2023-04-24T09:39:12;460.90;2380.80
54946;DHT22;40846;44.788;20.486;2023-04-24T09:44:19;460.90;2380.80
54946;DHT22;40846;44.788;20.486;2023-04-24T09:47:03;461.00;2380.80
54946;DHT22;40846;44.788;20.486;2023-04-24T09:49:35;461.00;2380.80
54946;DHT22;40846;44.788;20.486;2023-04-24T09:52:22;460.90;2380.80
54946;DHT22;40846;44.788;20.486;2023-04-24T09:54:56;460.90;2380.80
54946;DHT22;40846;44.788;20.486;2023-04-24T09:57:25;460.90;2380.80
54946;DHT22;40846;44.788;20.486;2023-04-24T09:59:53;460.90;2380.80
54946;DHT22;40846;44.788;20.486;2023-04-24T10:02:19;460.90;2380.80
54946;DHT22;40846;44.788;20.486;2023-04-24T10:04:58;460.90;2380.80
54946;DHT22;40846;44.788;20.486;2023-04-24T10:07:33;461.00;2380.80
54946;DHT22;40846;44.788;20.486;2023-04-24T10:10:00;460.80;2380.80
54946;DHT22;40846;44.788;20.486;2023-04-24T10:12:29;436.10;2355.20
54946;DHT22;40846;44.788;20.486;2023-04-24T10:14:56;436.00;2355.20
54946;DHT22;40846;44.788;20.486;2023-04-24T10:17:23;436.10;2355.20
54946;DHT22;40846;44.788;20.486;2023-04-24T10:19:51;436.00;2355.20
54946;DHT22;40846;44.788;20.486;2023-04-24T10:25:45;460.80;2380.80
54946;DHT22;40846;44.788;20.486;2023-04-24T10:28:15;436.00;2355.20
54946;DHT22;40846;44.788;20.486;2023-04-24T10:30:48;436.00;2355.20
54946;DHT22;40846;44.788;20.486;2023-04-24T10:33:16;435.70;2355.20
54946;DHT22;40846;44.788;20.486;2023-04-24T10:35:46;435.60;2355.20
54946;DHT22;40846;44.788;20.486;2023-04-24T10:38:18;435.60;2355.20
54946;DHT22;40846;44.788;20.486;2023-04-24T10:40:49;435.50;2355.20
54946;DHT22;40846;44.788;20.486;2023-04-24T10:43:17;435.40;2355.20
54946;DHT22;40846;44.788;20.486;2023-04-24T10:46:01;435.50;2355.20
54946;DHT22;40846;44.788;20.486;2023-04-24T10:48:27;435.50;2355.20
54946;DHT22;40846;44.788;20.486;2023-04-24T10:50:56;435.60;2355.20
54946;DHT22;40846;44.788;20.486;2023-04-24T10:53:25;435.60;2355.20
54946;DHT22;40846;44.788;20.486;2023-04-24T10:56:06;435.60;2355.20
54946;DHT22;40846;44.788;20.486;2023-04-24T10:58:38;436.10;2355.20
54946;DHT22;40846;44.788;20.486;2023-04-24T11:01:05;460.80;2380.80
54946;DHT22;40846;44.788;20.486;2023-04-24T11:03:33;436.10;2355.20
54946;DHT22;40846;44.788;20.486;2023-04-24T11:06:05;436.10;2355.20
54946;DHT22;40846;44.788;20.486;2023-04-24T11:11:18;461.20;2380.80
54946;DHT22;40846;44.788;20.486;2023-04-24T11:19:22;461.40;2380.80
54946;DHT22;40846;44.788;20.486;2023-04-24T14:46:03;486.80;2380.80
54946;DHT22;40846;44.788;20.486;2023-04-24T14:53:27;486.50;2380.80
54946;DHT22;40846;44.788;20.486;2023-04-24T14:55:54;461.60;2380.80
54946;DHT22;40846;44.788;20.486;2023-04-24T14:58:23;461.50;2380.80
54946;DHT22;40846;44.788;20.486;2023-04-24T15:00:48;461.50;2380.80
54946;DHT22;40846;44.788;20.486;2023-04-24T15:03:37;461.50;2380.80
54946;DHT22;40846;44.788;20.486;2023-04-24T15:06:09;461.50;2380.80
54946;DHT22;40846;44.788;20.486;2023-04-24T15:08:34;461.50;2380.80
54946;DHT22;40846;44.788;20.486;2023-04-24T15:11:00;461.50;2380.80
54946;DHT22;40846;44.788;20.486;2023-04-24T15:13:26;461.40;2380.80
54946;DHT22;40846;44.788;20.486;2023-04-24T15:16:03;461.50;2380.80
54946;DHT22;40846;44.788;20.486;2023-04-24T15:18:47;461.40;2380.80
54946;DHT22;40846;44.788;20.486;2023-04-24T15:21:13;461.30;2380.80
54946;DHT22;40846;44.788;20.486;2023-04-24T15:23:39;461.30;2380.80
54946;DHT22;40846;44.788;20.486;2023-04-24T15:26:11;461.40;2380.80
54946;DHT22;40846;44.788;20.486;2023-04-24T15:28:40;461.30;2380.80
54946;DHT22;40846;44.788;20.486;2023-04-24T15:31:06;461.30;2380.80
54946;DHT22;40846;44.788;20.486;2023-04-24T15:33:32;461.30;2380.80
54946;DHT22;40846;44.788;20.486;2023-04-24T15:35:57;461.20;2380.80
54946;DHT22;40846;44.788;20.486;2023-04-24T15:38:26;461.20;2380.80
54946;DHT22;40846;44.788;20.486;2023-04-24T15:40:52;461.30;2380.80
54946;DHT22;40846;44.788;20.486;2023-04-24T15:43:27;461.10;2380.80
54946;DHT22;40846;44.788;20.486;2023-04-24T15:46:02;461.10;2380.80
54946;DHT22;40846;44.788;20.486;2023-04-24T15:48:28;461.10;2380.80
54946;DHT22;40846;44.788;20.486;2023-04-24T15:50:55;461.10;2380.80
54946;DHT22;40846;44.788;20.486;2023-04-24T15:53:24;461.00;2380.80
54946;DHT22;40846;44.788;20.486;2023-04-24T15:55:51;460.90;2380.80
54946;DHT22;40846;44.788;20.486;2023-04-24T15:58:18;460.90;2380.80
54946;DHT22;40846;44.788;20.486;2023-04-24T16:00:44;460.90;2380.80
54946;DHT22;40846;44.788;20.486;2023-04-24T16:03:12;460.90;2380.80
54946;DHT22;40846;44.788;20.486;2023-04-24T16:05:38;460.90;2380.80
54946;DHT22;40846;44.788;20.486;2023-04-24T16:08:04;460.80;2380.80
54946;DHT22;40846;44.788;20.486;2023-04-24T16:10:30;460.80;2380.80
54946;DHT22;40846;44.788;20.486;2023-04-24T16:12:56;460.90;2380.80
54946;DHT22;40846;44.788;20.486;2023-04-24T16:15:26;460.90;2380.80
54946;DHT22;40846;44.788;20.486;2023-04-24T16:17:55;460.90;2380.80
54946;DHT22;40846;44.788;20.486;2023-04-24T16:20:21;460.80;2380.80
54946;DHT22;40846;44.788;20.486;2023-04-24T16:22:47;460.90;2380.80
54946;DHT22;40846;44.788;20.486;2023-04-24T16:25:13;461.00;2380.80
54946;DHT22;40846;44.788;20.486;2023-04-24T16:27:38;460.90;2380.80
54946;DHT22;40846;44.788;20.486;2023-04-24T16:30:05;460.90;2380.80
54946;DHT22;40846;44.788;20.486;2023-04-24T16:32:34;461.00;2380.80
54946;DHT22;40846;44.788;20.486;2023-04-24T16:35:00;461.10;2380.80
54946;DHT22;40846;44.788;20.486;2023-04-24T16:37:27;460.90;2380.80
54946;DHT22;40846;44.788;20.486;2023-04-24T16:39:53;460.80;2380.80
54946;DHT22;40846;44.788;20.486;2023-04-24T16:42:19;460.80;2380.80
54946;DHT22;40846;44.788;20.486;2023-04-24T16:54:35;436.00;2355.20
54946;DHT22;40846;44.788;20.486;2023-04-24T16:57:04;435.90;2355.20
54946;DHT22;40846;44.788;20.486;2023-04-24T16:59:48;435.70;2355.20
54946;DHT22;40846;44.788;20.486;2023-04-24T17:02:13;435.60;2355.20
54946;DHT22;40846;44.788;20.486;2023-04-24T17:04:39;435.50;2355.20
54946;DHT22;40846;44.788;20.486;2023-04-24T17:07:06;435.50;2355.20
54946;DHT22;40846;44.788;20.486;2023-04-24T17:09:32;435.50;2355.20
54946;DHT22;40846;44.788;20.486;2023-04-24T17:11:59;435.50;2355.20
54946;DHT22;40846;44.788;20.486;2023-04-24T17:14:30;435.40;2355.20
54946;DHT22;40846;44.788;20.486;2023-04-24T17:16:56;435.40;2355.20
54946;DHT22;40846;44.788;20.486;2023-04-24T17:21:48;435.60;2355.20
54946;DHT22;40846;44.788;20.486;2023-04-24T17:24:14;435.40;2355.20
54946;DHT22;40846;44.788;20.486;2023-04-24T17:26:40;435.30;2355.20
54946;DHT22;40846;44.788;20.486;2023-04-24T17:29:06;435.20;2355.20
54946;DHT22;40846;44.788;20.486;2023-04-24T17:36:30;435.40;2355.20
54946;DHT22;40846;44.788;20.486;2023-04-24T17:38:59;410.50;2355.20
54946;DHT22;40846;44.788;20.486;2023-04-24T17:41:34;435.20;2355.20
54946;DHT22;40846;44.788;20.486;2023-04-24T17:44:03;410.40;2355.20
54946;DHT22;40846;44.788;20.486;2023-04-24T17:46:31;410.40;2355.20
54946;DHT22;40846;44.788;20.486;2023-04-24T17:48:57;410.30;2355.20
54946;DHT22;40846;44.788;20.486;2023-04-24T17:51:23;410.30;2355.20
54946;DHT22;40846;44.788;20.486;2023-04-24T17:53:52;410.30;2355.20
54946;DHT22;40846;44.788;20.486;2023-04-24T17:56:18;410.20;2355.20
54946;DHT22;40846;44.788;20.486;2023-04-24T17:58:44;410.20;2355.20
54946;DHT22;40846;44.788;20.486;2023-04-24T18:01:10;410.20;2355.20
54946;DHT22;40846;44.788;20.486;2023-04-24T18:03:36;410.20;2355.20
54946;DHT22;40846;44.788;20.486;2023-04-24T18:06:04;410.10;2355.20
54946;DHT22;40846;44.788;20.486;2023-04-24T18:08:34;410.10;2355.20
54946;DHT22;40846;44.788;20.486;2023-04-24T18:11:01;410.10;2355.20
54946;DHT22;40846;44.788;20.486;2023-04-24T18:13:27;410.10;2355.20
54946;DHT22;40846;44.788;20.486;2023-04-24T18:15:55;410.00;2355.20
54946;DHT22;40846;44.788;20.486;2023-04-24T18:18:21;410.20;2355.20
54946;DHT22;40846;44.788;20.486;2023-04-24T18:20:46;410.10;2355.20
54946;DHT22;40846;44.788;20.486;2023-04-24T18:23:12;410.20;2355.20
54946;DHT22;40846;44.788;20.486;2023-04-24T18:25:42;410.20;2355.20
54946;DHT22;40846;44.788;20.486;2023-04-24T18:28:08;410.20;2355.20
54946;DHT22;40846;44.788;20.486;2023-04-24T18:30:34;410.20;2355.20
54946;DHT22;40846;44.788;20.486;2023-04-24T18:33:00;410.30;2355.20
54946;DHT22;40846;44.788;20.486;2023-04-24T18:35:25;410.30;2355.20
54946;DHT22;40846;44.788;20.486;2023-04-24T18:37:52;410.20;2355.20
54946;DHT22;40846;44.788;20.486;2023-04-24T18:40:17;410.20;2355.20
54946;DHT22;40846;44.788;20.486;2023-04-24T18:42:44;410.10;2355.20
54946;DHT22;40846;44.788;20.486;2023-04-24T18:45:10;410.20;2355.20
54946;DHT22;40846;44.788;20.486;2023-04-24T18:47:37;410.00;2355.20
54946;DHT22;40846;44.788;20.486;2023-04-24T18:50:03;410.00;2355.20
54946;DHT22;40846;44.788;20.486;2023-04-24T18:52:30;410.00;2355.20
54946;DHT22;40846;44.788;20.486;2023-04-24T18:54:56;410.10;2355.20
54946;DHT22;40846;44.788;20.486;2023-04-24T18:57:22;410.10;2355.20
54946;DHT22;40846;44.788;20.486;2023-04-24T18:59:48;410.10;2355.20
54946;DHT22;40846;44.788;20.486;2023-04-24T19:02:17;410.00;2355.20
54946;DHT22;40846;44.788;20.486;2023-04-24T19:04:46;410.00;2355.20
54946;DHT22;40846;44.788;20.486;2023-04-24T19:07:15;410.00;2355.20
54946;DHT22;40846;44.788;20.486;2023-04-24T19:09:43;409.90;2355.20
54946;DHT22;40846;44.788;20.486;2023-04-24T19:12:12;409.90;2355.20
54946;DHT22;40846;44.788;20.486;2023-04-24T19:14:38;409.90;2355.20
54946;DHT22;40846;44.788;20.486;2023-04-24T19:17:04;409.80;2355.20
54946;DHT22;40846;44.788;20.486;2023-04-24T19:19:35;410.00;2355.20
54946;DHT22;40846;44.788;20.486;2023-04-24T19:22:07;409.90;2355.20
54946;DHT22;40846;44.788;20.486;2023-04-24T19:24:33;409.80;2355.20
54946;DHT22;40846;44.788;20.486;2023-04-24T19:27:12;409.90;2355.20
54946;DHT22;40846;44.788;20.486;2023-04-24T19:30:02;409.70;2355.20
54946;DHT22;40846;44.788;20.486;2023-04-24T19:32:38;409.70;2355.20
54946;DHT22;40846;44.788;20.486;2023-04-24T19:35:27;409.80;2355.20
54946;DHT22;40846;44.788;20.486;2023-04-24T19:38:07;409.70;2355.20
54946;DHT22;40846;44.788;20.486;2023-04-24T19:40:54;409.70;2355.20
54946;DHT22;40846;44.788;20.486;2023-04-24T19:43:19;409.80;2355.20
54946;DHT22;40846;44.788;20.486;2023-04-24T19:45:45;409.80;2355.20
54946;DHT22;40846;44.788;20.486;2023-04-24T19:48:12;410.20;2355.20
54946;DHT22;40846;44.788;20.486;2023-04-24T19:50:38;410.00;2355.20
54946;DHT22;40846;44.788;20.486;2023-04-24T19:57:57;410.40;2355.20
54946;DHT22;40846;44.788;20.486;2023-04-24T20:00:25;410.00;2355.20
54946;DHT22;40846;44.788;20.486;2023-04-24T20:02:54;410.00;2355.20
54946;DHT22;40846;44.788;20.486;2023-04-24T20:05:20;410.00;2355.20
54946;DHT22;40846;44.788;20.486;2023-04-24T20:07:45;410.00;2355.20
54946;DHT22;40846;44.788;20.486;2023-04-24T20:10:11;410.00;2355.20
54946;DHT22;40846;44.788;20.486;2023-04-24T20:12:37;410.10;2355.20
54946;DHT22;40846;44.788;20.486;2023-04-24T20:15:04;410.00;2355.20
54946;DHT22;40846;44.788;20.486;2023-04-24T20:17:30;410.00;2355.20
54946;DHT22;40846;44.788;20.486;2023-04-24T20:19:55;409.90;2355.20
54946;DHT22;40846;44.788;20.486;2023-04-24T20:22:21;410.00;2355.20
54946;DHT22;40846;44.788;20.486;2023-04-24T20:24:52;410.00;2355.20
54946;DHT22;40846;44.788;20.486;2023-04-24T20:27:18;410.00;2355.20
54946;DHT22;40846;44.788;20.486;2023-04-24T20:29:48;410.00;2355.20
54946;DHT22;40846;44.788;20.486;2023-04-24T20:32:14;410.00;2355.20
54946;DHT22;40846;44.788;20.486;2023-04-24T20:34:40;410.00;2355.20
54946;DHT22;40846;44.788;20.486;2023-04-24T20:37:09;409.90;2355.20
54946;DHT22;40846;44.788;20.486;2023-04-24T20:39:37;409.90;2355.20
54946;DHT22;40846;44.788;20.486;2023-04-24T20:42:07;409.90;2355.20
54946;DHT22;40846;44.788;20.486;2023-04-24T20:44:38;409.80;2355.20
54946;DHT22;40846;44.788;20.486;2023-04-24T20:47:14;409.90;2355.20
54946;DHT22;40846;44.788;20.486;2023-04-24T20:49:40;409.90;2355.20
54946;DHT22;40846;44.788;20.486;2023-04-24T20:52:09;410.00;2355.20
54946;DHT22;40846;44.788;20.486;2023-04-24T20:54:34;409.90;2355.20
54946;DHT22;40846;44.788;20.486;2023-04-24T20:57:00;409.90;2355.20
54946;DHT22;40846;44.788;20.486;2023-04-24T20:59:26;409.90;2355.20
54946;DHT22;40846;44.788;20.486;2023-04-24T21:01:52;409.90;2355.20
54946;DHT22;40846;44.788;20.486;2023-04-24T21:04:18;410.00;2355.20
54946;DHT22;40846;44.788;20.486;2023-04-24T21:06:44;409.90;2355.20
54946;DHT22;40846;44.788;20.486;2023-04-24T21:09:10;409.90;2355.20
54946;DHT22;40846;44.788;20.486;2023-04-24T21:11:38;409.90;2355.20
54946;DHT22;40846;44.788;20.486;2023-04-24T21:14:06;409.80;2355.20
54946;DHT22;40846;44.788;20.486;2023-04-24T21:16:32;409.70;2355.20
54946;DHT22;40846;44.788;20.486;2023-04-24T21:18:58;409.70;2355.20
54946;DHT22;40846;44.788;20.486;2023-04-24T21:21:24;409.70;2355.20
54946;DHT22;40846;44.788;20.486;2023-04-24T21:23:53;409.70;2355.20
54946;DHT22;40846;44.788;20.486;2023-04-24T21:26:19;409.80;2355.20
54946;DHT22;40846;44.788;20.486;2023-04-24T21:28:45;409.90;2355.20
54946;DHT22;40846;44.788;20.486;2023-04-24T21:31:11;409.90;2355.20
54946;DHT22;40846;44.788;20.486;2023-04-24T21:33:37;409.90;2355.20
54946;DHT22;40846;44.788;20.486;2023-04-24T21:36:03;410.00;2355.20
54946;DHT22;40846;44.788;20.486;2023-04-24T21:38:36;410.00;2355.20
54946;DHT22;40846;44.788;20.486;2023-04-24T21:41:04;410.10;2355.20
54946;DHT22;40846;44.788;20.486;2023-04-24T21:43:32;410.00;2355.20
54946;DHT22;40846;44.788;20.486;2023-04-24T21:45:58;410.00;2355.20
54946;DHT22;40846;44.788;20.486;2023-04-24T21:48:26;410.10;2355.20
54946;DHT22;40846;44.788;20.486;2023-04-24T21:50:52;410.10;2355.20
54946;DHT22;40846;44.788;20.486;2023-04-24T21:53:18;410.00;2355.20
54946;DHT22;40846;44.788;20.486;2023-04-24T21:55:44;409.90;2355.20
54946;DHT22;40846;44.788;20.486;2023-04-24T21:58:10;409.90;2355.20
54946;DHT22;40846;44.788;20.486;2023-04-24T22:00:36;409.90;2355.20
54946;DHT22;40846;44.788;20.486;2023-04-24T22:03:03;409.90;2355.20
54946;DHT22;40846;44.788;20.486;2023-04-24T22:05:29;409.90;2355.20
54946;DHT22;40846;44.788;20.486;2023-04-24T22:07:56;409.90;2355.20
54946;DHT22;40846;44.788;20.486;2023-04-24T22:10:28;409.90;2355.20
54946;DHT22;40846;44.788;20.486;2023-04-24T22:12:53;409.90;2355.20
54946;DHT22;40846;44.788;20.486;2023-04-24T22:15:19;409.70;2355.20
54946;DHT22;40846;44.788;20.486;2023-04-24T22:17:45;409.70;2355.20
54946;DHT22;40846;44.788;20.486;2023-04-24T22:20:11;409.70;2355.20
54946;DHT22;40846;44.788;20.486;2023-04-24T22:22:38;409.70;2355.20
54946;DHT22;40846;44.788;20.486;2023-04-24T22:25:04;409.70;2355.20
54946;DHT22;40846;44.788;20.486;2023-04-24T22:27:30;409.60;2355.20
54946;DHT22;40846;44.788;20.486;2023-04-24T22:29:57;409.70;2355.20
54946;DHT22;40846;44.788;20.486;2023-04-24T22:32:25;409.60;2355.20
54946;DHT22;40846;44.788;20.486;2023-04-24T22:34:51;384.90;2329.60
54946;DHT22;40846;44.788;20.486;2023-04-24T22:37:20;384.80;2329.60
54946;DHT22;40846;44.788;20.486;2023-04-24T22:39:48;384.80;2329.60
54946;DHT22;40846;44.788;20.486;2023-04-24T22:42:14;384.80;2329.60
54946;DHT22;40846;44.788;20.486;2023-04-24T22:44:40;384.70;2329.60
54946;DHT22;40846;44.788;20.486;2023-04-24T22:47:15;384.60;2329.60
54946;DHT22;40846;44.788;20.486;2023-04-24T22:49:42;384.70;2329.60
54946;DHT22;40846;44.788;20.486;2023-04-24T22:52:08;384.70;2329.60
54946;DHT22;40846;44.788;20.486;2023-04-24T22:54:35;384.70;2329.60
54946;DHT22;40846;44.788;20.486;2023-04-24T22:57:02;384.80;2329.60
54946;DHT22;40846;44.788;20.486;2023-04-24T22:59:28;384.70;2329.60
54946;DHT22;40846;44.788;20.486;2023-04-24T23:01:57;384.70;2329.60
54946;DHT22;40846;44.788;20.486;2023-04-24T23:04:26;384.70;2329.60
54946;DHT22;40846;44.788;20.486;2023-04-24T23:06:53;384.70;2329.60
54946;DHT22;40846;44.788;20.486;2023-04-24T23:09:26;384.70;2329.60
54946;DHT22;40846;44.788;20.486;2023-04-24T23:11:51;384.70;2329.60
54946;DHT22;40846;44.788;20.486;2023-04-24T23:14:17;384.80;2329.60
54946;DHT22;40846;44.788;20.486;2023-04-24T23:16:46;384.80;2329.60
54946;DHT22;40846;44.788;20.486;2023-04-24T23:19:12;384.80;2329.60
54946;DHT22;40846;44.788;20.486;2023-04-24T23:21:37;384.70;2329.60
54946;DHT22;40846;44.788;20.486;2023-04-24T23:24:03;384.70;2329.60
54946;DHT22;40846;44.788;20.486;2023-04-24T23:26:29;384.60;2329.60
54946;DHT22;40846;44.788;20.486;2023-04-24T23:28:55;384.60;2329.60
54946;DHT22;40846;44.788;20.486;2023-04-24T23:31:21;384.50;2329.60
54946;DHT22;40846;44.788;20.486;2023-04-24T23:33:46;384.60;2329.60
54946;DHT22;40846;44.788;20.486;2023-04-24T23:36:12;384.60;2329.60
54946;DHT22;40846;44.788;20.486;2023-04-24T23:38:41;384.70;2329.60
54946;DHT22;40846;44.788;20.486;2023-04-24T23:41:07;384.60;2329.60
54946;DHT22;40846;44.788;20.486;2023-04-24T23:43:33;384.60;2329.60
54946;DHT22;40846;44.788;20.486;2023-04-24T23:45:59;384.60;2329.60
54946;DHT22;40846;44.788;20.486;2023-04-24T23:48:24;384.50;2329.60
54946;DHT22;40846;44.788;20.486;2023-04-24T23:50:50;384.40;2329.60
54946;DHT22;40846;44.788;20.486;2023-04-24T23:53:16;384.30;2329.60
54946;DHT22;40846;44.788;20.486;2023-04-24T23:55:41;384.40;2329.60
54946;DHT22;40846;44.788;20.486;2023-04-24T23:58:07;384.20;2329.60
